Orbital elements of FENGYUN 1C DEB
| Launched | 9 May 1999 |
| Flight ended | – |
| Launch site | Taiyuan Space Center, PRC |
| Owner | People's Republic of China |
| NORAD ID | 30237 |
| Date fetched |
Epoch osculation |
Inc. [°] |
Ecc. | RA asc node [hr] |
Arg Peri. [°] |
Mean anom [°] |
Mean motion [rev/day] |
Abs. mag |
| Date fetched |
Epoch osculation |
Inc. [°] |
Ecc. | RA asc node [hr] |
Arg Peri. [°] |
Mean anom [°] |
Mean motion [rev/day] |
Abs. mag |
| 2026 May 07 17:58 | 2026 May 05 07:04:27 | 98.8269 | 0.00140 | 15.8597 | 234.1571 | 181.1276 | 14.43189 | – |
| 2026 May 06 17:57 | 2026 May 05 07:04:27 | 98.8269 | 0.00140 | 15.8597 | 234.1571 | 181.1276 | 14.43189 | – |
| 2026 May 05 17:57 | 2026 May 05 07:04:27 | 98.8269 | 0.00140 | 15.8597 | 234.1571 | 181.1276 | 14.43189 | – |
| 2026 May 04 17:57 | 2026 Apr 30 07:18:25 | 98.8265 | 0.00135 | 15.5151 | 249.3293 | 181.1276 | 14.43189 | – |
| 2026 May 03 17:57 | 2026 Apr 30 07:18:25 | 98.8265 | 0.00135 | 15.5151 | 249.3293 | 181.1276 | 14.43189 | – |
| 2026 May 02 17:57 | 2026 Apr 30 07:18:25 | 98.8265 | 0.00135 | 15.5151 | 249.3293 | 181.1276 | 14.43189 | – |
| 2026 May 01 17:56 | 2026 Apr 30 07:18:25 | 98.8265 | 0.00135 | 15.5151 | 249.3293 | 181.1276 | 14.43189 | – |
| 2026 Apr 30 17:56 | 2026 Apr 30 07:18:25 | 98.8265 | 0.00135 | 15.5151 | 249.3293 | 181.1276 | 14.43189 | – |
| 2026 Apr 29 17:57 | 2026 Apr 24 06:22:19 | 98.8247 | 0.00129 | 15.0982 | 268.2598 | 181.1276 | 14.43189 | – |
| 2026 Apr 28 17:56 | 2026 Apr 24 06:22:19 | 98.8247 | 0.00129 | 15.0982 | 268.2598 | 181.1276 | 14.43189 | – |
| 2026 Apr 27 17:58 | 2026 Apr 24 06:22:19 | 98.8247 | 0.00129 | 15.0982 | 268.2598 | 181.1276 | 14.43189 | – |
| 2026 Apr 26 17:58 | 2026 Apr 24 06:22:19 | 98.8247 | 0.00129 | 15.0982 | 268.2598 | 181.1276 | 14.43189 | – |
| 2026 Apr 25 17:58 | 2026 Apr 24 06:22:19 | 98.8247 | 0.00129 | 15.0982 | 268.2598 | 181.1276 | 14.43189 | – |
| 2026 Apr 24 17:59 | 2026 Apr 24 06:22:19 | 98.8247 | 0.00129 | 15.0982 | 268.2598 | 181.1276 | 14.43189 | – |
| 2026 Apr 23 17:57 | 2026 Apr 17 06:17:52 | 98.8250 | 0.00123 | 14.6148 | 291.7122 | 181.1276 | 14.43189 | – |
| 2026 Apr 22 17:57 | 2026 Apr 17 06:17:52 | 98.8250 | 0.00123 | 14.6148 | 291.7122 | 181.1276 | 14.43189 | – |
| 2026 Apr 21 17:57 | 2026 Apr 17 06:17:52 | 98.8250 | 0.00123 | 14.6148 | 291.7122 | 181.1276 | 14.43189 | – |
| 2026 Apr 20 17:57 | 2026 Apr 17 06:17:52 | 98.8250 | 0.00123 | 14.6148 | 291.7122 | 181.1276 | 14.43189 | – |
| 2026 Apr 19 17:58 | 2026 Apr 17 06:17:52 | 98.8250 | 0.00123 | 14.6148 | 291.7122 | 181.1276 | 14.43189 | – |
| 2026 Apr 18 17:56 | 2026 Apr 13 05:55:37 | 98.8239 | 0.00122 | 14.3377 | 305.5406 | 181.1276 | 14.43189 | – |
| 2026 Apr 16 17:57 | 2026 Apr 13 05:55:37 | 98.8239 | 0.00122 | 14.3377 | 305.5406 | 181.1276 | 14.43189 | – |
| 2026 Apr 14 17:57 | 2026 Apr 13 05:55:37 | 98.8239 | 0.00122 | 14.3377 | 305.5406 | 181.1276 | 14.43189 | – |
| 2026 Apr 13 17:57 | 2026 Apr 13 05:55:37 | 98.8239 | 0.00122 | 14.3377 | 305.5406 | 181.1276 | 14.43189 | – |
| 2026 Apr 12 17:57 | 2026 Apr 08 05:54:32 | 98.8233 | 0.00120 | 13.9925 | 322.8891 | 181.1276 | 14.43189 | – |
| 2026 Apr 11 17:57 | 2026 Apr 08 05:54:32 | 98.8233 | 0.00120 | 13.9925 | 322.8891 | 181.1276 | 14.43189 | – |
| 2026 Apr 10 17:58 | 2026 Apr 08 05:54:32 | 98.8233 | 0.00120 | 13.9925 | 322.8891 | 181.1276 | 14.43189 | – |